Terminal Aerodrome Forecast
Issued by NWS

Home | Current Version | Previous Version | Text Only | Print | Product List | Glossary On
Versions: 1 2 3 4 5 6 7 8 9 10 11 12 13 14 15 16 17
995
FTUS43 KJKL 161437 AAB
TAFSME
TAF AMD
KSME 161437Z 1615/1712 VRB03KT P6SM SCT040 OVC080
     FM161600 15004KT P6SM BKN050
     FM162100 20005KT P6SM VCSH BKN090
     FM170800 18007KT 3SM SHRA BKN015=

USA.gov is the U.S. government's official web portal to all federal, state and local government web resources and services.